sensor_id;sensor_type;location;lat;lon;timestamp;pressure;altitude;pressure_sealevel;temperature;humidity
55474;BME280;65220;52.214;0.116;2023-01-04T00:00:49;100977.70;;;15.48;33.00
55474;BME280;65220;52.214;0.116;2023-01-04T00:03:15;100980.63;;;15.32;33.08
55474;BME280;65220;52.214;0.116;2023-01-04T00:05:40;100975.09;;;15.45;32.97
55474;BME280;65220;52.214;0.116;2023-01-04T00:08:05;100965.78;;;15.71;32.96
55474;BME280;65220;52.214;0.116;2023-01-04T00:10:30;100969.75;;;15.40;33.00
55474;BME280;65220;52.214;0.116;2023-01-04T00:12:55;100962.84;;;15.59;33.05
55474;BME280;65220;52.214;0.116;2023-01-04T00:15:21;100977.53;;;15.55;32.98
55474;BME280;65220;52.214;0.116;2023-01-04T00:17:46;100972.78;;;15.62;33.08
55474;BME280;65220;52.214;0.116;2023-01-04T00:20:11;100977.26;;;15.50;33.06
55474;BME280;65220;52.214;0.116;2023-01-04T00:22:36;100983.28;;;15.26;33.15
55474;BME280;65220;52.214;0.116;2023-01-04T00:25:02;100983.40;;;15.19;33.01
55474;BME280;65220;52.214;0.116;2023-01-04T00:27:27;100983.24;;;15.43;33.00
55474;BME280;65220;52.214;0.116;2023-01-04T00:29:52;100975.42;;;15.68;32.99
55474;BME280;65220;52.214;0.116;2023-01-04T00:32:18;100965.83;;;15.61;33.04
55474;BME280;65220;52.214;0.116;2023-01-04T00:34:43;100947.55;;;15.51;33.13
55474;BME280;65220;52.214;0.116;2023-01-04T00:37:08;100957.08;;;15.35;33.09
55474;BME280;65220;52.214;0.116;2023-01-04T00:39:33;100959.44;;;15.34;33.17
55474;BME280;65220;52.214;0.116;2023-01-04T00:41:59;100967.15;;;15.23;33.19
55474;BME280;65220;52.214;0.116;2023-01-04T00:44:24;100957.12;;;15.46;33.14
55474;BME280;65220;52.214;0.116;2023-01-04T00:46:49;100950.68;;;15.39;33.20
55474;BME280;65220;52.214;0.116;2023-01-04T00:49:14;100954.21;;;15.65;33.12
55474;BME280;65220;52.214;0.116;2023-01-04T00:51:41;100944.15;;;15.48;33.18
55474;BME280;65220;52.214;0.116;2023-01-04T00:54:07;100938.10;;;15.36;33.16
55474;BME280;65220;52.214;0.116;2023-01-04T00:56:31;100938.87;;;15.32;33.22
55474;BME280;65220;52.214;0.116;2023-01-04T00:58:58;100951.99;;;15.61;33.18
55474;BME280;65220;52.214;0.116;2023-01-04T01:01:22;100956.33;;;15.59;33.20
55474;BME280;65220;52.214;0.116;2023-01-04T01:03:47;100941.98;;;15.38;33.25
55474;BME280;65220;52.214;0.116;2023-01-04T01:06:12;100934.12;;;15.46;33.21
55474;BME280;65220;52.214;0.116;2023-01-04T01:08:37;100948.05;;;15.36;33.20
55474;BME280;65220;52.214;0.116;2023-01-04T01:11:05;100944.87;;;15.55;33.23
55474;BME280;65220;52.214;0.116;2023-01-04T01:43:48;100938.96;;;16.87;34.68
55474;BME280;65220;52.214;0.116;2023-01-04T01:45:58;100937.80;;;13.58;34.13
55474;BME280;65220;52.214;0.116;2023-01-04T01:48:26;100938.86;;;13.93;33.39
55474;BME280;65220;52.214;0.116;2023-01-04T01:50:51;100943.55;;;14.30;32.77
55474;BME280;65220;52.214;0.116;2023-01-04T01:53:14;100948.31;;;13.89;32.66
55474;BME280;65220;52.214;0.116;2023-01-04T01:55:39;100960.22;;;14.58;32.42
55474;BME280;65220;52.214;0.116;2023-01-04T01:58:06;100950.97;;;14.49;32.25
55474;BME280;65220;52.214;0.116;2023-01-04T02:00:29;100943.52;;;14.60;32.20
55474;BME280;65220;52.214;0.116;2023-01-04T02:03:08;100946.78;;;14.64;32.18
55474;BME280;65220;52.214;0.116;2023-01-04T02:05:20;100941.94;;;14.49;32.25
55474;BME280;65220;52.214;0.116;2023-01-04T02:07:45;100951.16;;;14.52;32.10
55474;BME280;65220;52.214;0.116;2023-01-04T02:10:10;100939.31;;;14.56;32.13
55474;BME280;65220;52.214;0.116;2023-01-04T02:12:35;100935.43;;;14.55;32.05
55474;BME280;65220;52.214;0.116;2023-01-04T02:15:01;100938.79;;;14.76;32.03
55474;BME280;65220;52.214;0.116;2023-01-04T02:17:35;100944.77;;;14.28;32.00
55474;BME280;65220;52.214;0.116;2023-01-04T02:20:04;100946.90;;;14.53;32.10
55474;BME280;65220;52.214;0.116;2023-01-04T02:23:09;100952.41;;;14.60;32.13
55474;BME280;65220;52.214;0.116;2023-01-04T02:24:58;100950.22;;;14.05;32.48
55474;BME280;65220;52.214;0.116;2023-01-04T02:27:34;100946.91;;;14.26;32.40
55474;BME280;65220;52.214;0.116;2023-01-04T02:29:51;100944.61;;;14.18;32.52
55474;BME280;65220;52.214;0.116;2023-01-04T02:32:00;100937.57;;;15.05;32.38
55474;BME280;65220;52.214;0.116;2023-01-04T02:34:31;100937.23;;;15.51;32.55
55474;BME280;65220;52.214;0.116;2023-01-04T02:36:56;100931.57;;;15.37;32.72
55474;BME280;65220;52.214;0.116;2023-01-04T02:39:22;100917.02;;;15.30;32.86
55474;BME280;65220;52.214;0.116;2023-01-04T02:41:45;100895.53;;;15.17;32.93
55474;BME280;65220;52.214;0.116;2023-01-04T02:44:10;100905.85;;;15.47;32.98
55474;BME280;65220;52.214;0.116;2023-01-04T02:46:34;100911.27;;;15.26;33.02
55474;BME280;65220;52.214;0.116;2023-01-04T02:48:58;100905.02;;;15.42;32.91
55474;BME280;65220;52.214;0.116;2023-01-04T02:51:29;100885.55;;;15.02;33.11
55474;BME280;65220;52.214;0.116;2023-01-04T02:53:45;100859.90;;;15.08;33.09
55474;BME280;65220;52.214;0.116;2023-01-04T02:56:14;100864.99;;;15.45;33.06
55474;BME280;65220;52.214;0.116;2023-01-04T02:58:49;100857.06;;;15.35;33.06
55474;BME280;65220;52.214;0.116;2023-01-04T03:01:09;100842.33;;;15.28;33.01
55474;BME280;65220;52.214;0.116;2023-01-04T03:03:33;100830.19;;;15.25;33.13
55474;BME280;65220;52.214;0.116;2023-01-04T03:05:58;100847.96;;;15.15;33.13
55474;BME280;65220;52.214;0.116;2023-01-04T03:08:27;100846.05;;;15.35;33.05
55474;BME280;65220;52.214;0.116;2023-01-04T03:10:45;100837.05;;;15.13;33.06
55474;BME280;65220;52.214;0.116;2023-01-04T03:13:12;100843.30;;;15.24;33.05
55474;BME280;65220;52.214;0.116;2023-01-04T03:15:34;100845.26;;;15.20;33.07
55474;BME280;65220;52.214;0.116;2023-01-04T03:18:01;100860.73;;;15.36;33.05
55474;BME280;65220;52.214;0.116;2023-01-04T03:20:24;100872.36;;;15.19;33.08
55474;BME280;65220;52.214;0.116;2023-01-04T03:22:51;100865.28;;;15.30;33.07
55474;BME280;65220;52.214;0.116;2023-01-04T03:25:15;100880.19;;;15.17;33.07
55474;BME280;65220;52.214;0.116;2023-01-04T03:27:40;100877.51;;;15.22;33.05
55474;BME280;65220;52.214;0.116;2023-01-04T03:30:08;100866.84;;;15.07;33.13
55474;BME280;65220;52.214;0.116;2023-01-04T03:32:31;100873.34;;;15.15;33.09
55474;BME280;65220;52.214;0.116;2023-01-04T03:34:54;100858.16;;;15.24;33.10
55474;BME280;65220;52.214;0.116;2023-01-04T03:37:23;100857.90;;;15.47;33.06
55474;BME280;65220;52.214;0.116;2023-01-04T03:39:58;100855.18;;;14.99;33.17
55474;BME280;65220;52.214;0.116;2023-01-04T03:42:14;100850.25;;;15.24;32.99
55474;BME280;65220;52.214;0.116;2023-01-04T03:44:40;100857.54;;;15.03;33.05
55474;BME280;65220;52.214;0.116;2023-01-04T03:47:03;100866.81;;;15.22;32.96
55474;BME280;65220;52.214;0.116;2023-01-04T03:49:28;100872.88;;;15.00;32.99
55474;BME280;65220;52.214;0.116;2023-01-04T03:51:53;100889.15;;;15.18;33.03
55474;BME280;65220;52.214;0.116;2023-01-04T03:54:19;100893.24;;;15.22;32.98
55474;BME280;65220;52.214;0.116;2023-01-04T03:56:43;100883.61;;;15.33;33.00
55474;BME280;65220;52.214;0.116;2023-01-04T03:59:06;100894.28;;;14.95;33.11
55474;BME280;65220;52.214;0.116;2023-01-04T04:01:31;100885.00;;;15.09;33.12
55474;BME280;65220;52.214;0.116;2023-01-04T04:03:56;100890.03;;;15.13;33.08
55474;BME280;65220;52.214;0.116;2023-01-04T04:06:22;100892.07;;;15.28;32.99
55474;BME280;65220;52.214;0.116;2023-01-04T04:08:47;100893.21;;;15.35;33.00
55474;BME280;65220;52.214;0.116;2023-01-04T04:11:12;100893.23;;;15.40;33.05
55474;BME280;65220;52.214;0.116;2023-01-04T04:13:37;100893.10;;;15.09;33.01
55474;BME280;65220;52.214;0.116;2023-01-04T04:16:02;100893.36;;;15.26;32.98
55474;BME280;65220;52.214;0.116;2023-01-04T04:18:28;100880.92;;;15.24;33.06
55474;BME280;65220;52.214;0.116;2023-01-04T04:20:57;100881.87;;;15.41;33.08
55474;BME280;65220;52.214;0.116;2023-01-04T04:23:18;100891.76;;;15.28;33.10
55474;BME280;65220;52.214;0.116;2023-01-04T04:25:44;100887.75;;;15.16;33.04
55474;BME280;65220;52.214;0.116;2023-01-04T04:28:08;100885.81;;;15.32;33.00
55474;BME280;65220;52.214;0.116;2023-01-04T04:30:34;100880.55;;;15.03;33.12
55474;BME280;65220;52.214;0.116;2023-01-04T04:32:59;100877.11;;;15.35;33.06
55474;BME280;65220;52.214;0.116;2023-01-04T04:35:24;100868.31;;;15.19;33.09
55474;BME280;65220;52.214;0.116;2023-01-04T04:37:49;100869.88;;;15.25;32.95
55474;BME280;65220;52.214;0.116;2023-01-04T04:40:14;100868.76;;;15.14;33.11
55474;BME280;65220;52.214;0.116;2023-01-04T04:42:40;100871.80;;;15.19;33.06
55474;BME280;65220;52.214;0.116;2023-01-04T04:45:06;100865.12;;;15.42;33.05
55474;BME280;65220;52.214;0.116;2023-01-04T04:47:30;100864.83;;;15.23;33.05
55474;BME280;65220;52.214;0.116;2023-01-04T04:49:55;100874.57;;;15.29;32.98
55474;BME280;65220;52.214;0.116;2023-01-04T04:52:20;100871.39;;;15.19;33.06
55474;BME280;65220;52.214;0.116;2023-01-04T04:54:46;100875.72;;;15.29;33.05
55474;BME280;65220;52.214;0.116;2023-01-04T04:57:11;100868.47;;;15.20;33.05
55474;BME280;65220;52.214;0.116;2023-01-04T04:59:36;100879.08;;;15.18;33.08
55474;BME280;65220;52.214;0.116;2023-01-04T05:02:02;100881.25;;;15.15;33.08
55474;BME280;65220;52.214;0.116;2023-01-04T05:04:27;100865.45;;;15.17;33.09
55474;BME280;65220;52.214;0.116;2023-01-04T05:06:52;100878.39;;;15.20;33.14
55474;BME280;65220;52.214;0.116;2023-01-04T05:09:18;100879.77;;;15.00;33.17
55474;BME280;65220;52.214;0.116;2023-01-04T05:11:43;100870.32;;;15.22;33.11
55474;BME280;65220;52.214;0.116;2023-01-04T05:14:08;100885.41;;;15.25;33.00
55474;BME280;65220;52.214;0.116;2023-01-04T05:16:33;100888.40;;;15.12;33.11
55474;BME280;65220;52.214;0.116;2023-01-04T05:18:58;100892.15;;;15.12;33.12
55474;BME280;65220;52.214;0.116;2023-01-04T05:21:23;100887.81;;;15.06;33.06
55474;BME280;65220;52.214;0.116;2023-01-04T05:23:49;100890.05;;;15.10;33.12
55474;BME280;65220;52.214;0.116;2023-01-04T05:26:14;100890.47;;;15.05;33.15
55474;BME280;65220;52.214;0.116;2023-01-04T05:28:39;100888.55;;;15.28;33.13
55474;BME280;65220;52.214;0.116;2023-01-04T05:31:04;100896.81;;;15.31;33.10
55474;BME280;65220;52.214;0.116;2023-01-04T05:33:31;100893.21;;;15.14;33.09
55474;BME280;65220;52.214;0.116;2023-01-04T05:35:57;100892.94;;;15.04;33.11
55474;BME280;65220;52.214;0.116;2023-01-04T05:38:21;100893.83;;;15.01;33.08
55474;BME280;65220;52.214;0.116;2023-01-04T05:40:46;100890.92;;;15.28;33.12
55474;BME280;65220;52.214;0.116;2023-01-04T05:43:11;100886.42;;;14.84;33.09
55474;BME280;65220;52.214;0.116;2023-01-04T05:45:36;100883.11;;;15.00;33.17
55474;BME280;65220;52.214;0.116;2023-01-04T05:48:02;100874.45;;;15.04;33.13
55474;BME280;65220;52.214;0.116;2023-01-04T05:50:26;100874.47;;;15.06;33.19
55474;BME280;65220;52.214;0.116;2023-01-04T05:52:52;100877.53;;;15.21;33.01
55474;BME280;65220;52.214;0.116;2023-01-04T05:55:17;100870.09;;;14.89;33.15
55474;BME280;65220;52.214;0.116;2023-01-04T05:57:42;100871.50;;;15.10;33.09
55474;BME280;65220;52.214;0.116;2023-01-04T06:00:09;100873.40;;;14.98;33.11
55474;BME280;65220;52.214;0.116;2023-01-04T06:02:33;100882.96;;;15.05;33.20
55474;BME280;65220;52.214;0.116;2023-01-04T06:04:58;100879.30;;;14.99;33.16
55474;BME280;65220;52.214;0.116;2023-01-04T06:07:23;100880.34;;;15.19;33.11
55474;BME280;65220;52.214;0.116;2023-01-04T06:09:48;100881.73;;;15.33;33.06
55474;BME280;65220;52.214;0.116;2023-01-04T06:12:13;100873.22;;;15.06;33.09
55474;BME280;65220;52.214;0.116;2023-01-04T06:14:39;100873.51;;;15.17;33.05
55474;BME280;65220;52.214;0.116;2023-01-04T06:17:04;100898.10;;;15.05;33.13
55474;BME280;65220;52.214;0.116;2023-01-04T06:19:29;100872.04;;;15.04;33.19
55474;BME280;65220;52.214;0.116;2023-01-04T06:21:54;100867.53;;;15.12;33.09
55474;BME280;65220;52.214;0.116;2023-01-04T06:24:19;100872.54;;;15.00;33.15
55474;BME280;65220;52.214;0.116;2023-01-04T06:26:45;100872.64;;;15.00;33.15
55474;BME280;65220;52.214;0.116;2023-01-04T06:29:10;100862.64;;;15.09;33.08
55474;BME280;65220;52.214;0.116;2023-01-04T06:31:35;100874.08;;;14.86;33.15
55474;BME280;65220;52.214;0.116;2023-01-04T06:34:00;100862.56;;;15.22;33.11
55474;BME280;65220;52.214;0.116;2023-01-04T06:36:26;100864.47;;;15.07;33.08
55474;BME280;65220;52.214;0.116;2023-01-04T06:38:51;100861.04;;;15.00;33.11
55474;BME280;65220;52.214;0.116;2023-01-04T06:41:16;100869.11;;;14.95;33.16
55474;BME280;65220;52.214;0.116;2023-01-04T06:43:41;100871.25;;;15.06;33.08
55474;BME280;65220;52.214;0.116;2023-01-04T06:46:06;100872.17;;;15.16;33.01
55474;BME280;65220;52.214;0.116;2023-01-04T06:48:31;100883.31;;;15.00;33.08
55474;BME280;65220;52.214;0.116;2023-01-04T06:50:56;100886.68;;;15.00;33.11
55474;BME280;65220;52.214;0.116;2023-01-04T06:53:21;100884.51;;;15.33;33.11
55474;BME280;65220;52.214;0.116;2023-01-04T06:55:47;100880.39;;;14.96;33.18
55474;BME280;65220;52.214;0.116;2023-01-04T06:58:12;100879.79;;;14.60;33.27
55474;BME280;65220;52.214;0.116;2023-01-04T07:00:37;100880.94;;;14.97;33.16
55474;BME280;65220;52.214;0.116;2023-01-04T07:03:02;100875.17;;;15.08;33.12
55474;BME280;65220;52.214;0.116;2023-01-04T07:05:28;100868.82;;;15.08;33.22
55474;BME280;65220;52.214;0.116;2023-01-04T07:07:53;100867.54;;;14.98;33.17
55474;BME280;65220;52.214;0.116;2023-01-04T07:10:18;100862.51;;;15.06;33.09
55474;BME280;65220;52.214;0.116;2023-01-04T07:12:43;100865.82;;;14.98;33.14
55474;BME280;65220;52.214;0.116;2023-01-04T07:15:09;100872.75;;;15.03;33.18
55474;BME280;65220;52.214;0.116;2023-01-04T07:17:34;100873.46;;;15.04;33.16
55474;BME280;65220;52.214;0.116;2023-01-04T07:19:59;100870.69;;;15.11;33.28
55474;BME280;65220;52.214;0.116;2023-01-04T07:22:24;100877.39;;;15.27;33.16
55474;BME280;65220;52.214;0.116;2023-01-04T07:24:49;100875.56;;;15.03;33.23
55474;BME280;65220;52.214;0.116;2023-01-04T07:27:14;100879.05;;;14.96;33.23
55474;BME280;65220;52.214;0.116;2023-01-04T07:29:39;100883.04;;;14.99;33.19
55474;BME280;65220;52.214;0.116;2023-01-04T07:32:05;100887.68;;;14.63;33.28
55474;BME280;65220;52.214;0.116;2023-01-04T07:34:30;100899.87;;;14.95;33.21
55474;BME280;65220;52.214;0.116;2023-01-04T07:36:55;100892.13;;;15.20;33.19
55474;BME280;65220;52.214;0.116;2023-01-04T07:39:20;100890.10;;;14.91;33.25
55474;BME280;65220;52.214;0.116;2023-01-04T07:41:47;100890.64;;;15.03;33.23
55474;BME280;65220;52.214;0.116;2023-01-04T07:44:11;100893.37;;;14.96;33.18
55474;BME280;65220;52.214;0.116;2023-01-04T07:46:36;100885.06;;;14.94;33.19
55474;BME280;65220;52.214;0.116;2023-01-04T07:49:01;100886.45;;;14.65;33.25
55474;BME280;65220;52.214;0.116;2023-01-04T07:51:26;100886.72;;;15.07;33.18
55474;BME280;65220;52.214;0.116;2023-01-04T07:53:51;100898.92;;;14.76;33.26
55474;BME280;65220;52.214;0.116;2023-01-04T07:56:17;100898.30;;;15.07;33.13
55474;BME280;65220;52.214;0.116;2023-01-04T07:58:42;100903.28;;;14.88;33.24
55474;BME280;65220;52.214;0.116;2023-01-04T08:01:08;100900.42;;;14.95;33.25
55474;BME280;65220;52.214;0.116;2023-01-04T08:03:32;100904.34;;;15.06;33.25
55474;BME280;65220;52.214;0.116;2023-01-04T08:05:57;100902.39;;;15.30;33.09
55474;BME280;65220;52.214;0.116;2023-01-04T08:08:23;100907.25;;;15.34;32.97
55474;BME280;65220;52.214;0.116;2023-01-04T08:10:48;100915.98;;;15.45;33.08
55474;BME280;65220;52.214;0.116;2023-01-04T08:13:13;100920.26;;;14.96;33.04
55474;BME280;65220;52.214;0.116;2023-01-04T08:15:38;100916.98;;;15.22;32.97
55474;BME280;65220;52.214;0.116;2023-01-04T08:18:03;100912.51;;;15.11;32.92
55474;BME280;65220;52.214;0.116;2023-01-04T08:20:29;100906.55;;;15.03;33.16
55474;BME280;65220;52.214;0.116;2023-01-04T08:22:54;100899.32;;;15.00;33.04
55474;BME280;65220;52.214;0.116;2023-01-04T08:25:19;100916.58;;;15.39;33.36
55474;BME280;65220;52.214;0.116;2023-01-04T08:27:44;100910.84;;;14.85;33.51
55474;BME280;65220;52.214;0.116;2023-01-04T08:30:10;100916.04;;;15.03;33.50
55474;BME280;65220;52.214;0.116;2023-01-04T08:32:34;100919.16;;;15.39;33.33
55474;BME280;65220;52.214;0.116;2023-01-04T08:35:00;100926.77;;;15.06;33.52
55474;BME280;65220;52.214;0.116;2023-01-04T08:37:25;100932.29;;;15.27;33.65
55474;BME280;65220;52.214;0.116;2023-01-04T08:39:50;100927.96;;;15.22;33.82
55474;BME280;65220;52.214;0.116;2023-01-04T08:42:15;100931.99;;;15.18;33.85
55474;BME280;65220;52.214;0.116;2023-01-04T08:44:40;100928.05;;;15.13;33.89
55474;BME280;65220;52.214;0.116;2023-01-04T08:47:06;100931.87;;;15.21;33.88
55474;BME280;65220;52.214;0.116;2023-01-04T08:49:31;100940.56;;;15.24;33.88
55474;BME280;65220;52.214;0.116;2023-01-04T08:51:56;100941.20;;;15.52;33.93
55474;BME280;65220;52.214;0.116;2023-01-04T08:54:21;100939.17;;;15.21;34.03
55474;BME280;65220;52.214;0.116;2023-01-04T08:56:46;100937.26;;;15.20;33.79
55474;BME280;65220;52.214;0.116;2023-01-04T08:59:12;100940.77;;;15.80;33.63
55474;BME280;65220;52.214;0.116;2023-01-04T09:01:37;100949.33;;;15.28;34.21
55474;BME280;65220;52.214;0.116;2023-01-04T09:04:02;100958.42;;;15.43;33.89
55474;BME280;65220;52.214;0.116;2023-01-04T09:06:28;100948.03;;;15.29;34.10
55474;BME280;65220;52.214;0.116;2023-01-04T09:08:54;100952.83;;;15.18;34.12
55474;BME280;65220;52.214;0.116;2023-01-04T09:11:20;100954.59;;;14.99;34.11
55474;BME280;65220;52.214;0.116;2023-01-04T09:13:44;100967.28;;;15.25;34.02
55474;BME280;65220;52.214;0.116;2023-01-04T09:16:11;100965.09;;;15.24;33.74
55474;BME280;65220;52.214;0.116;2023-01-04T09:18:34;100969.53;;;15.48;33.80
55474;BME280;65220;52.214;0.116;2023-01-04T09:20:59;100975.18;;;15.23;33.76
55474;BME280;65220;52.214;0.116;2023-01-04T09:23:24;100971.02;;;15.25;33.77
55474;BME280;65220;52.214;0.116;2023-01-04T09:25:49;100964.83;;;15.07;33.95
55474;BME280;65220;52.214;0.116;2023-01-04T09:28:14;100977.30;;;15.41;33.53
55474;BME280;65220;52.214;0.116;2023-01-04T09:30:39;100976.06;;;15.10;33.84
55474;BME280;65220;52.214;0.116;2023-01-04T09:33:04;100994.81;;;15.20;33.77
55474;BME280;65220;52.214;0.116;2023-01-04T09:35:30;100990.45;;;15.13;33.69
55474;BME280;65220;52.214;0.116;2023-01-04T09:37:55;100983.66;;;15.03;33.91
55474;BME280;65220;52.214;0.116;2023-01-04T09:40:23;100988.52;;;15.11;33.81
55474;BME280;65220;52.214;0.116;2023-01-04T09:42:45;100984.08;;;15.13;33.61
55474;BME280;65220;52.214;0.116;2023-01-04T09:45:16;100993.84;;;14.84;33.81
55474;BME280;65220;52.214;0.116;2023-01-04T09:47:40;100996.37;;;15.31;33.66
55474;BME280;65220;52.214;0.116;2023-01-04T09:50:06;101009.89;;;15.17;33.54
55474;BME280;65220;52.214;0.116;2023-01-04T09:52:35;100992.50;;;15.06;33.83
55474;BME280;65220;52.214;0.116;2023-01-04T09:54:56;100992.28;;;14.86;33.89
55474;BME280;65220;52.214;0.116;2023-01-04T09:57:22;100991.54;;;15.04;33.93
55474;BME280;65220;52.214;0.116;2023-01-04T09:59:42;100992.45;;;14.94;33.87
55474;BME280;65220;52.214;0.116;2023-01-04T10:02:11;100989.81;;;15.08;33.89
55474;BME280;65220;52.214;0.116;2023-01-04T10:04:42;100990.45;;;15.02;33.85
55474;BME280;65220;52.214;0.116;2023-01-04T10:06:57;100993.97;;;15.01;33.84
55474;BME280;65220;52.214;0.116;2023-01-04T10:09:22;100992.90;;;15.02;33.72
55474;BME280;65220;52.214;0.116;2023-01-04T10:12:03;100997.93;;;14.87;33.82
55474;BME280;65220;52.214;0.116;2023-01-04T10:14:23;100995.71;;;14.84;33.79
55474;BME280;65220;52.214;0.116;2023-01-04T10:16:51;101002.25;;;15.15;33.78
55474;BME280;65220;52.214;0.116;2023-01-04T10:19:12;100993.65;;;14.90;33.78
55474;BME280;65220;52.214;0.116;2023-01-04T10:21:35;100994.75;;;15.08;33.58
55474;BME280;65220;52.214;0.116;2023-01-04T10:24:04;101003.90;;;15.08;33.61
55474;BME280;65220;52.214;0.116;2023-01-04T10:26:24;101002.63;;;14.98;33.67
55474;BME280;65220;52.214;0.116;2023-01-04T10:28:58;100995.87;;;14.87;33.70
55474;BME280;65220;52.214;0.116;2023-01-04T10:31:13;101004.91;;;15.00;33.64
55474;BME280;65220;52.214;0.116;2023-01-04T10:33:39;101013.32;;;15.15;33.44
55474;BME280;65220;52.214;0.116;2023-01-04T10:36:00;101006.74;;;15.02;33.60
55474;BME280;65220;52.214;0.116;2023-01-04T10:38:29;101005.59;;;14.89;33.56
55474;BME280;65220;52.214;0.116;2023-01-04T10:40:50;101003.47;;;14.98;33.70
55474;BME280;65220;52.214;0.116;2023-01-04T10:43:23;101005.54;;;14.83;33.70
55474;BME280;65220;52.214;0.116;2023-01-04T10:45:45;101019.56;;;14.96;33.76
55474;BME280;65220;52.214;0.116;2023-01-04T10:48:11;101022.97;;;15.05;33.68
55474;BME280;65220;52.214;0.116;2023-01-04T10:50:37;101011.93;;;14.84;33.64
55474;BME280;65220;52.214;0.116;2023-01-04T10:53:00;101022.86;;;14.88;33.64
55474;BME280;65220;52.214;0.116;2023-01-04T10:55:26;101027.53;;;14.56;33.78
55474;BME280;65220;52.214;0.116;2023-01-04T10:57:51;101028.89;;;14.80;33.64
55474;BME280;65220;52.214;0.116;2023-01-04T11:00:14;101027.98;;;15.07;33.64
55474;BME280;65220;52.214;0.116;2023-01-04T11:02:41;101029.89;;;14.96;33.68
55474;BME280;65220;52.214;0.116;2023-01-04T11:05:09;101044.13;;;15.40;33.63
55474;BME280;65220;52.214;0.116;2023-01-04T11:07:37;101035.66;;;14.97;33.66
55474;BME280;65220;52.214;0.116;2023-01-04T11:09:58;101035.55;;;15.25;33.60
55474;BME280;65220;52.214;0.116;2023-01-04T11:12:21;101029.72;;;15.07;33.59
55474;BME280;65220;52.214;0.116;2023-01-04T11:14:44;101040.86;;;15.05;33.54
55474;BME280;65220;52.214;0.116;2023-01-04T11:17:10;101043.24;;;15.26;33.34
55474;BME280;65220;52.214;0.116;2023-01-04T11:19:34;101030.79;;;15.78;32.97
55474;BME280;65220;52.214;0.116;2023-01-04T11:22:03;101039.27;;;14.99;33.43
55474;BME280;65220;52.214;0.116;2023-01-04T11:24:29;101047.09;;;15.18;33.12
55474;BME280;65220;52.214;0.116;2023-01-04T11:26:51;101034.01;;;15.09;33.16
55474;BME280;65220;52.214;0.116;2023-01-04T11:29:27;101042.70;;;14.98;33.27
55474;BME280;65220;52.214;0.116;2023-01-04T11:31:45;101036.88;;;14.91;33.30
55474;BME280;65220;52.214;0.116;2023-01-04T11:34:06;101040.82;;;14.74;33.45
55474;BME280;65220;52.214;0.116;2023-01-04T11:36:34;101041.97;;;14.82;33.51
55474;BME280;65220;52.214;0.116;2023-01-04T11:38:57;101054.72;;;14.80;33.40
55474;BME280;65220;52.214;0.116;2023-01-04T11:41:22;101050.47;;;14.69;33.41
55474;BME280;65220;52.214;0.116;2023-01-04T11:43:56;101050.27;;;14.83;33.41
55474;BME280;65220;52.214;0.116;2023-01-04T11:46:21;101046.27;;;14.77;33.41
55474;BME280;65220;52.214;0.116;2023-01-04T11:48:40;101048.69;;;15.03;33.38
55474;BME280;65220;52.214;0.116;2023-01-04T11:51:04;101041.77;;;15.04;33.36
55474;BME280;65220;52.214;0.116;2023-01-04T11:53:30;101035.43;;;14.88;33.44
55474;BME280;65220;52.214;0.116;2023-01-04T11:56:12;101041.50;;;14.86;33.48
55474;BME280;65220;52.214;0.116;2023-01-04T11:58:18;101049.07;;;14.87;33.40
55474;BME280;65220;52.214;0.116;2023-01-04T12:00:49;101037.93;;;14.79;33.38
55474;BME280;65220;52.214;0.116;2023-01-04T12:03:11;101031.05;;;15.26;33.40
55474;BME280;65220;52.214;0.116;2023-01-04T12:05:34;101033.74;;;15.16;33.40
55474;BME280;65220;52.214;0.116;2023-01-04T12:07:59;101033.91;;;14.88;33.38
55474;BME280;65220;52.214;0.116;2023-01-04T12:10:26;101032.03;;;15.01;33.47
55474;BME280;65220;52.214;0.116;2023-01-04T12:12:50;101019.61;;;15.11;33.36
55474;BME280;65220;52.214;0.116;2023-01-04T12:15:20;101022.11;;;15.51;33.17
55474;BME280;65220;52.214;0.116;2023-01-04T12:17:46;101033.06;;;15.13;33.19
55474;BME280;65220;52.214;0.116;2023-01-04T12:20:13;101031.42;;;14.95;33.24
55474;BME280;65220;52.214;0.116;2023-01-04T12:22:34;101025.41;;;15.13;33.19
55474;BME280;65220;52.214;0.116;2023-01-04T12:24:56;101029.38;;;14.82;33.15
55474;BME280;65220;52.214;0.116;2023-01-04T12:27:21;101031.99;;;15.14;32.99
55474;BME280;65220;52.214;0.116;2023-01-04T12:29:56;101040.23;;;15.42;32.97
55474;BME280;65220;52.214;0.116;2023-01-04T12:32:45;101036.05;;;15.21;33.27
55474;BME280;65220;52.214;0.116;2023-01-04T12:34:40;101038.34;;;15.07;33.27
55474;BME280;65220;52.214;0.116;2023-01-04T12:37:03;101033.86;;;14.89;33.26
55474;BME280;65220;52.214;0.116;2023-01-04T12:39:38;101029.37;;;14.90;33.27
55474;BME280;65220;52.214;0.116;2023-01-04T12:42:19;101017.69;;;15.08;33.26
55474;BME280;65220;52.214;0.116;2023-01-04T12:45:23;101022.59;;;14.73;33.29
55474;BME280;65220;52.214;0.116;2023-01-04T12:46:43;101022.49;;;13.49;33.45
55474;BME280;65220;52.214;0.116;2023-01-04T12:49:43;101032.12;;;14.99;33.07
55474;BME280;65220;52.214;0.116;2023-01-04T12:51:34;101017.48;;;14.86;33.26
55474;BME280;65220;52.214;0.116;2023-01-04T12:54:01;101039.95;;;14.88;33.21
55474;BME280;65220;52.214;0.116;2023-01-04T12:57:31;101026.33;;;15.37;33.14
55474;BME280;65220;52.214;0.116;2023-01-04T12:59:32;101037.04;;;14.30;33.43
55474;BME280;65220;52.214;0.116;2023-01-04T13:02:15;101023.58;;;15.01;33.18
55474;BME280;65220;52.214;0.116;2023-01-04T13:04:32;101026.52;;;14.93;33.14
55474;BME280;65220;52.214;0.116;2023-01-04T13:06:43;101025.81;;;14.90;33.15
55474;BME280;65220;52.214;0.116;2023-01-04T13:09:15;101009.45;;;15.20;33.08